Time;durP1;ratioP1;P1;durP2;ratioP2;P2;SDS_P1;SDS_P2;PMS_P1;PMS_P2;Temp;Humidity;BMP_temperature;BMP_pressure;BME280_temperature;BME280_humidity;BME280_pressure;Samples;Min_cycle;Max_cycle;Signal;HPM_P1;HPM_P2
2021/08/29 00:00:34;;;;;;;0.53;0.53;;;19.60;69.00;;;;;;10452603;28;20213;-60
2021/08/29 00:05:57;;;;;;;0.33;0.33;;;19.60;68.10;;;;;;10454134;28;20325;-58
2021/08/29 00:11:20;;;;;;;0.50;0.50;;;19.60;67.50;;;;;;10453052;28;20189;-63
2021/08/29 00:16:42;;;;;;;0.90;0.73;;;19.60;68.50;;;;;;10453775;28;20692;-62
2021/08/29 00:22:06;;;;;;;0.57;0.53;;;19.60;68.90;;;;;;10434268;28;20232;-64
2021/08/29 00:27:28;;;;;;;0.90;0.70;;;19.60;68.10;;;;;;10444590;28;20229;-64
2021/08/29 00:32:51;;;;;;;0.50;0.50;;;19.60;67.30;;;;;;10425583;28;20205;-63
2021/08/29 00:38:14;;;;;;;0.90;0.60;;;19.60;68.40;;;;;;10452290;28;20228;-63
2021/08/29 00:43:37;;;;;;;0.83;0.83;;;19.60;68.80;;;;;;10452096;28;20224;-62
2021/08/29 00:48:59;;;;;;;0.40;0.40;;;19.60;68.10;;;;;;10450120;28;20251;-63
2021/08/29 00:54:23;;;;;;;0.70;0.57;;;19.60;67.80;;;;;;10451280;28;20198;-63
2021/08/29 00:59:45;;;;;;;0.70;0.60;;;19.60;68.60;;;;;;10451574;28;20224;-62
2021/08/29 01:05:10;;;;;;;0.60;0.57;;;19.60;68.90;;;;;;10451442;28;20225;-63
2021/08/29 01:10:41;;;;;;;1.07;0.70;;;19.60;67.90;;;;;;10451001;28;20220;-62
2021/08/29 01:16:06;;;;;;;0.50;0.50;;;19.60;68.40;;;;;;10451159;28;20193;-63
2021/08/29 01:21:30;;;;;;;0.60;0.60;;;19.50;68.90;;;;;;10450782;28;20213;-63
2021/08/29 01:27:01;;;;;;;0.57;0.57;;;19.60;68.40;;;;;;10447744;28;20232;-63
2021/08/29 01:32:25;;;;;;;0.57;0.57;;;19.50;69.20;;;;;;10410220;28;20204;-64
2021/08/29 01:37:47;;;;;;;0.47;0.43;;;19.50;69.30;;;;;;10444616;28;20217;-63
2021/08/29 01:43:10;;;;;;;0.60;0.60;;;19.60;68.40;;;;;;10449197;28;20681;-63
2021/08/29 01:48:33;;;;;;;0.60;0.60;;;19.60;67.60;;;;;;10449336;28;20217;-59
2021/08/29 01:53:56;;;;;;;0.53;0.53;;;19.60;67.60;;;;;;10451228;28;20193;-63
2021/08/29 01:59:18;;;;;;;0.87;0.87;;;19.60;68.60;;;;;;10450183;28;20224;-63
2021/08/29 02:04:43;;;;;;;0.70;0.50;;;19.50;68.50;;;;;;10456923;28;20227;-63
2021/08/29 02:10:07;;;;;;;0.60;0.60;;;19.60;67.70;;;;;;10457856;28;20221;-63
2021/08/29 02:15:31;;;;;;;0.63;0.63;;;19.60;68.30;;;;;;10458114;28;20201;-63
2021/08/29 02:20:54;;;;;;;0.57;0.57;;;19.50;68.90;;;;;;10457229;28;20380;-63
2021/08/29 02:26:17;;;;;;;0.60;0.60;;;19.50;68.50;;;;;;10457812;28;20217;-62
2021/08/29 02:31:39;;;;;;;0.87;0.50;;;19.60;68.30;;;;;;10416197;28;20190;-62
2021/08/29 02:37:04;;;;;;;0.60;0.60;;;19.60;68.20;;;;;;10415297;28;20221;-62
2021/08/29 02:42:29;;;;;;;0.70;0.60;;;19.50;68.80;;;;;;10439734;28;20217;-65
2021/08/29 02:47:52;;;;;;;0.60;0.50;;;19.50;68.50;;;;;;10458966;28;20727;-65
2021/08/29 02:53:17;;;;;;;0.80;0.60;;;19.60;67.80;;;;;;10456719;28;20204;-63
2021/08/29 02:58:40;;;;;;;0.63;0.60;;;19.50;68.80;;;;;;10455326;28;20680;-64
2021/08/29 03:04:03;;;;;;;1.43;0.80;;;19.50;69.00;;;;;;10456037;28;20585;-63
2021/08/29 03:09:31;;;;;;;0.40;0.40;;;19.50;68.20;;;;;;10456005;28;20221;-63
2021/08/29 03:14:54;;;;;;;0.60;0.60;;;19.60;67.40;;;;;;10456547;28;20189;-63
2021/08/29 03:20:17;;;;;;;0.60;0.60;;;19.60;68.00;;;;;;10454206;28;20217;-63
2021/08/29 03:25:42;;;;;;;0.53;0.53;;;19.50;68.60;;;;;;10453873;28;20209;-63
2021/08/29 03:31:05;;;;;;;0.57;0.50;;;19.50;68.30;;;;;;10416944;28;20190;-64
2021/08/29 03:36:30;;;;;;;0.70;0.60;;;19.60;67.50;;;;;;10412645;28;20228;-63
2021/08/29 03:41:57;;;;;;;0.80;0.70;;;19.60;68.20;;;;;;10412598;28;20217;-63
2021/08/29 03:47:20;;;;;;;0.73;0.53;;;19.50;68.90;;;;;;10452954;28;20589;-63
2021/08/29 03:52:42;;;;;;;0.50;0.43;;;19.50;68.40;;;;;;10453925;28;20192;-63
2021/08/29 03:58:06;;;;;;;0.60;0.60;;;19.50;67.50;;;;;;10454849;28;20217;-63
2021/08/29 04:03:29;;;;;;;0.70;0.70;;;19.60;67.70;;;;;;10452059;28;20600;-63
2021/08/29 04:08:54;;;;;;;0.40;0.40;;;19.50;68.50;;;;;;10413008;28;20225;-63
2021/08/29 04:14:18;;;;;;;0.60;0.60;;;19.50;68.50;;;;;;10413769;28;20213;-63
2021/08/29 04:19:43;;;;;;;0.77;0.70;;;19.50;67.70;;;;;;10452636;28;20224;-64
2021/08/29 04:25:06;;;;;;;0.50;0.50;;;19.50;68.70;;;;;;10451915;28;20217;-62
2021/08/29 04:30:30;;;;;;;0.63;0.63;;;19.50;69.10;;;;;;10419562;28;20228;-63
2021/08/29 04:35:52;;;;;;;0.60;0.60;;;19.50;68.30;;;;;;10412364;28;20197;-64
2021/08/29 04:41:14;;;;;;;0.57;0.57;;;19.50;67.90;;;;;;10433026;28;20196;-63
2021/08/29 04:46:38;;;;;;;0.80;0.70;;;19.50;68.90;;;;;;10451868;28;20212;-62
2021/08/29 04:52:00;;;;;;;0.50;0.50;;;19.50;68.90;;;;;;10451656;28;20331;-64
2021/08/29 04:57:22;;;;;;;0.67;0.60;;;19.50;67.90;;;;;;10449871;28;20216;-63
2021/08/29 05:02:46;;;;;;;0.43;0.40;;;19.50;68.30;;;;;;10451261;28;20200;-63
2021/08/29 05:13:13;;;;;;;0.70;0.70;;;19.50;69.10;;;;;;10504871;23;20739;-66
2021/08/29 05:18:36;;;;;;;0.60;0.53;;;19.50;67.90;;;;;;10491843;28;20216;-65
2021/08/29 05:23:59;;;;;;;0.73;0.70;;;19.50;68.80;;;;;;10491801;28;20205;-69
2021/08/29 05:29:21;;;;;;;0.63;0.63;;;19.50;69.20;;;;;;10487602;28;20208;-68
2021/08/29 05:34:44;;;;;;;0.50;0.50;;;19.50;68.40;;;;;;10492646;28;20188;-67
2021/08/29 05:40:08;;;;;;;0.57;0.53;;;19.50;68.40;;;;;;10500599;28;20216;-67
2021/08/29 05:45:30;;;;;;;0.67;0.53;;;19.50;68.80;;;;;;10500860;28;20672;-68
2021/08/29 05:50:53;;;;;;;0.50;0.40;;;19.50;69.10;;;;;;10500302;28;20215;-67
2021/08/29 05:56:15;;;;;;;0.57;0.50;;;19.50;68.20;;;;;;10499864;28;20563;-67
2021/08/29 06:01:37;;;;;;;0.57;0.57;;;19.50;67.40;;;;;;10499291;28;20691;-67
2021/08/29 06:07:01;;;;;;;0.60;0.60;;;19.50;68.50;;;;;;10499777;28;20187;-66
2021/08/29 06:12:23;;;;;;;0.73;0.50;;;19.50;69.00;;;;;;10498423;28;20228;-66
2021/08/29 06:17:45;;;;;;;1.10;0.73;;;19.50;68.30;;;;;;10498958;28;20204;-67
2021/08/29 06:23:08;;;;;;;0.53;0.53;;;19.50;67.80;;;;;;10499114;28;20223;-67
2021/08/29 06:28:30;;;;;;;0.70;0.70;;;19.50;69.30;;;;;;10498783;28;20664;-67
2021/08/29 06:33:52;;;;;;;0.50;0.50;;;19.50;68.90;;;;;;10497479;28;20607;-66
2021/08/29 06:39:16;;;;;;;0.50;0.50;;;19.50;68.10;;;;;;10497223;28;20208;-66
2021/08/29 06:44:38;;;;;;;0.73;0.70;;;19.50;68.30;;;;;;10497831;28;20567;-66
2021/08/29 06:50:00;;;;;;;0.60;0.43;;;19.50;68.90;;;;;;10495650;28;20220;-67
2021/08/29 06:55:24;;;;;;;0.50;0.50;;;19.50;68.70;;;;;;10496385;28;20188;-68
2021/08/29 07:00:46;;;;;;;0.63;0.50;;;19.50;67.90;;;;;;10497742;28;20215;-66
2021/08/29 07:06:08;;;;;;;0.50;0.40;;;19.50;68.40;;;;;;10497004;28;20219;-66
2021/08/29 07:11:31;;;;;;;0.33;0.33;;;19.50;69.10;;;;;;10495301;28;20215;-67
2021/08/29 07:16:54;;;;;;;0.73;0.70;;;19.50;68.50;;;;;;10493442;28;20192;-67
2021/08/29 07:22:16;;;;;;;0.70;0.70;;;19.50;67.70;;;;;;10497088;28;20576;-68
2021/08/29 07:27:39;;;;;;;0.40;0.40;;;19.50;68.20;;;;;;10486914;28;20197;-66
2021/08/29 07:33:01;;;;;;;0.83;0.67;;;19.50;68.90;;;;;;10454735;28;20205;-67
2021/08/29 07:38:23;;;;;;;0.40;0.40;;;19.40;69.40;;;;;;10455415;28;20186;-67
2021/08/29 07:43:47;;;;;;;0.60;0.60;;;19.40;69.80;;;;;;10451338;28;20216;-67
2021/08/29 07:49:09;;;;;;;0.60;0.60;;;19.40;70.00;;;;;;10489570;28;20220;-66
2021/08/29 07:54:31;;;;;;;0.70;0.70;;;19.40;70.10;;;;;;10462580;28;20564;-67
2021/08/29 07:59:54;;;;;;;0.60;0.50;;;19.30;70.20;;;;;;10479198;28;20239;-67
2021/08/29 08:05:16;;;;;;;0.47;0.47;;;19.30;70.40;;;;;;10479521;28;20208;-67
2021/08/29 08:10:38;;;;;;;0.43;0.43;;;19.30;70.50;;;;;;10492848;28;20575;-68
2021/08/29 08:16:02;;;;;;;0.57;0.50;;;19.30;71.20;;;;;;10495129;28;20192;-66
2021/08/29 08:21:24;;;;;;;0.60;0.60;;;19.30;70.80;;;;;;10493846;28;20217;-66
2021/08/29 08:26:46;;;;;;;0.40;0.40;;;19.30;70.90;;;;;;10492336;28;20214;-66
2021/08/29 08:32:10;;;;;;;0.50;0.50;;;19.30;71.10;;;;;;10569145;28;20556;-67
2021/08/29 08:37:32;;;;;;;0.70;0.70;;;19.30;71.20;;;;;;10578509;28;20187;-66
2021/08/29 08:42:54;;;;;;;2.20;0.73;;;19.30;71.30;;;;;;10575686;28;20431;-66
2021/08/29 08:48:21;;;;;;;0.80;0.70;;;19.50;72.00;;;;;;10577547;28;20547;-66
2021/08/29 08:53:44;;;;;;;8.82;1.65;;;19.40;71.10;;;;;;10575054;28;20474;-65
2021/08/29 08:59:07;;;;;;;5.10;1.87;;;19.60;70.60;;;;;;10574682;28;20203;-66
2021/08/29 09:04:30;;;;;;;5.17;2.00;;;19.70;70.50;;;;;;10576754;28;20211;-65
2021/08/29 09:09:52;;;;;;;7.10;1.93;;;19.80;70.00;;;;;;10576158;28;20222;-64
2021/08/29 09:15:20;;;;;;;4.73;1.83;;;19.90;69.60;;;;;;10576715;28;20245;-69
2021/08/29 09:20:44;;;;;;;6.80;2.00;;;19.90;69.20;;;;;;10573097;28;20796;-69
2021/08/29 09:26:06;;;;;;;3.30;1.53;;;20.60;67.10;;;;;;10576311;28;20210;-67
2021/08/29 09:31:43;;;;;;;4.47;1.63;;;20.30;68.10;;;;;;10550685;28;20269;-66
2021/08/29 09:37:07;;;;;;;1.70;1.27;;;20.10;67.50;;;;;;10546953;28;20191;-66
2021/08/29 09:42:29;;;;;;;2.67;1.23;;;20.00;67.80;;;;;;10558504;28;20215;-66
2021/08/29 09:47:52;;;;;;;2.53;1.37;;;20.00;67.80;;;;;;10575952;28;20187;-66
2021/08/29 09:53:17;;;;;;;3.90;1.50;;;19.90;67.60;;;;;;10577197;28;20214;-65
2021/08/29 09:58:39;;;;;;;1.67;1.03;;;19.90;67.60;;;;;;10603949;28;20711;-66
2021/08/29 10:04:02;;;;;;;2.13;1.23;;;19.90;67.60;;;;;;10571640;28;20215;-66
2021/08/29 10:09:27;;;;;;;1.63;1.20;;;19.90;67.60;;;;;;10559868;28;20224;-66
2021/08/29 10:14:50;;;;;;;1.73;1.27;;;19.90;67.60;;;;;;10538793;28;20191;-66
2021/08/29 10:20:14;;;;;;;2.47;1.00;;;19.90;67.40;;;;;;10563833;28;20215;-66
2021/08/29 10:25:40;;;;;;;1.77;0.90;;;19.90;67.50;;;;;;10581071;28;20235;-66
2021/08/29 10:31:05;;;;;;;1.03;0.80;;;20.00;67.40;;;;;;10572783;28;20237;-63
2021/08/29 10:36:28;;;;;;;2.30;1.13;;;20.00;67.60;;;;;;10580562;28;20182;-64
2021/08/29 10:41:53;;;;;;;1.30;0.90;;;20.00;67.00;;;;;;10580488;28;20694;-61
2021/08/29 10:47:18;;;;;;;2.20;1.00;;;19.90;67.50;;;;;;10581226;28;20207;-61
2021/08/29 10:52:41;;;;;;;2.20;1.10;;;19.80;68.50;;;;;;10581882;28;20750;-61
2021/08/29 10:58:05;;;;;;;2.10;0.97;;;19.70;69.70;;;;;;10579148;28;20198;-63
2021/08/29 11:03:28;;;;;;;2.67;0.80;;;19.70;70.30;;;;;;10581993;28;20211;-61
2021/08/29 11:08:50;;;;;;;1.27;1.03;;;19.60;70.60;;;;;;10599227;22;20243;-66
2021/08/29 11:14:41;;;;;;;1.63;1.10;;;19.50;71.00;;;;;;10495235;28;20575;-63
2021/08/29 11:20:13;;;;;;;2.13;0.83;;;19.50;71.20;;;;;;10508540;28;20615;-63
2021/08/29 11:25:35;;;;;;;1.20;0.77;;;19.50;71.60;;;;;;10535059;28;20218;-65
2021/08/29 11:30:58;;;;;;;1.03;0.80;;;19.50;71.90;;;;;;10518540;28;20204;-65
2021/08/29 11:36:28;;;;;;;0.90;0.80;;;19.40;72.10;;;;;;10514425;28;20196;-64
2021/08/29 11:42:11;;;;;;;3.00;1.10;;;19.50;72.40;;;;;;10533275;28;20242;-64
2021/08/29 11:47:40;;;;;;;2.53;0.90;;;19.40;72.50;;;;;;10503030;28;20215;-65
2021/08/29 11:53:02;;;;;;;3.10;0.93;;;19.40;72.70;;;;;;10522577;28;20223;-66
2021/08/29 11:58:24;;;;;;;1.43;1.00;;;19.40;73.00;;;;;;10510762;28;20201;-64
2021/08/29 12:03:48;;;;;;;1.70;1.17;;;19.40;73.90;;;;;;10495481;28;20215;-65
2021/08/29 12:09:25;;;;;;;1.40;1.00;;;19.40;74.00;;;;;;10535681;28;20228;-64
2021/08/29 12:14:50;;;;;;;1.63;1.20;;;19.40;74.00;;;;;;10535404;28;20183;-65
2021/08/29 12:20:14;;;;;;;0.90;0.90;;;19.40;72.70;;;;;;10518810;28;20564;-64
2021/08/29 12:25:37;;;;;;;1.00;0.87;;;19.40;73.20;;;;;;10531457;28;20578;-65
2021/08/29 12:31:00;;;;;;;1.33;1.03;;;19.40;73.40;;;;;;10533004;28;20219;-64
2021/08/29 12:36:24;;;;;;;1.93;1.00;;;19.40;73.00;;;;;;10530618;28;20832;-64
2021/08/29 12:41:48;;;;;;;1.00;0.90;;;19.40;72.40;;;;;;10491572;28;20219;-64
2021/08/29 12:47:10;;;;;;;1.17;1.07;;;19.40;73.00;;;;;;10491313;28;20276;-64
2021/08/29 12:52:39;;;;;;;1.60;1.23;;;19.40;73.30;;;;;;10506975;28;20219;-64
2021/08/29 12:58:02;;;;;;;1.20;1.00;;;19.40;72.50;;;;;;10532642;28;20195;-64
2021/08/29 13:03:24;;;;;;;1.10;1.00;;;19.40;72.30;;;;;;10522980;28;20204;-65
2021/08/29 13:08:49;;;;;;;1.00;0.90;;;19.40;72.80;;;;;;10511767;28;20593;-65
2021/08/29 13:14:11;;;;;;;1.17;0.90;;;19.40;73.20;;;;;;10531638;28;20191;-64
2021/08/29 13:19:33;;;;;;;1.10;1.00;;;19.40;72.60;;;;;;10532798;28;20594;-65
2021/08/29 13:24:57;;;;;;;1.17;1.07;;;19.40;72.50;;;;;;10495591;28;20204;-65
2021/08/29 13:30:20;;;;;;;1.00;0.90;;;19.40;73.00;;;;;;10490901;28;20224;-64
2021/08/29 13:35:43;;;;;;;1.13;1.00;;;19.40;73.30;;;;;;10493725;28;20227;-64
2021/08/29 13:41:07;;;;;;;1.10;1.00;;;19.30;72.20;;;;;;10531826;28;20219;-65
2021/08/29 13:46:30;;;;;;;1.20;1.10;;;19.30;72.90;;;;;;10532673;28;20582;-65
2021/08/29 13:51:52;;;;;;;1.40;0.80;;;19.40;73.30;;;;;;10518505;28;20216;-65
2021/08/29 13:57:16;;;;;;;1.23;1.00;;;19.30;73.20;;;;;;10494803;28;20667;-64
2021/08/29 14:02:38;;;;;;;1.10;1.00;;;19.40;71.80;;;;;;10503278;28;20223;-64
2021/08/29 14:08:01;;;;;;;1.10;1.00;;;19.30;72.60;;;;;;10528499;28;20231;-64
2021/08/29 14:13:25;;;;;;;1.10;1.00;;;19.40;73.20;;;;;;10498596;28;20671;-64
2021/08/29 14:18:47;;;;;;;1.27;0.90;;;19.40;73.20;;;;;;10497823;28;20216;-66
2021/08/29 14:24:09;;;;;;;0.87;0.87;;;19.40;72.00;;;;;;10531396;28;20215;-65
2021/08/29 14:29:34;;;;;;;1.73;0.90;;;19.40;72.80;;;;;;10538873;28;20620;-66
2021/08/29 14:34:59;;;;;;;0.80;0.80;;;19.40;73.30;;;;;;10540142;28;20192;-65
2021/08/29 14:40:24;;;;;;;0.90;0.80;;;19.30;73.00;;;;;;10538568;28;20215;-64
2021/08/29 14:45:47;;;;;;;0.90;0.83;;;19.40;71.70;;;;;;10537377;28;20282;-64
2021/08/29 14:51:09;;;;;;;1.13;0.80;;;19.40;72.50;;;;;;10537097;28;20227;-64
2021/08/29 14:56:32;;;;;;;1.27;1.13;;;19.40;73.10;;;;;;10537371;28;20199;-65
2021/08/29 15:01:55;;;;;;;0.80;0.80;;;19.30;73.30;;;;;;10537259;28;20216;-65
2021/08/29 15:07:17;;;;;;;1.10;1.00;;;19.40;72.10;;;;;;10514030;28;20227;-65
2021/08/29 15:12:40;;;;;;;2.27;1.10;;;19.40;72.70;;;;;;10524967;28;20224;-64
2021/08/29 15:18:04;;;;;;;1.10;1.00;;;19.30;73.10;;;;;;10529831;28;20279;-65
2021/08/29 15:23:26;;;;;;;0.90;0.90;;;19.30;73.30;;;;;;10536203;28;20272;-64
2021/08/29 15:28:49;;;;;;;1.00;0.90;;;19.30;72.00;;;;;;10535739;28;20215;-64
2021/08/29 15:34:12;;;;;;;1.33;1.10;;;19.40;72.40;;;;;;10535833;28;20196;-64
2021/08/29 15:39:38;;;;;;;1.10;1.00;;;19.30;72.90;;;;;;10522311;28;20223;-64
2021/08/29 15:45:01;;;;;;;1.10;1.00;;;19.30;73.30;;;;;;10534330;28;20713;-69
2021/08/29 15:50:24;;;;;;;1.67;1.27;;;19.40;72.40;;;;;;10503541;28;20568;-65
2021/08/29 15:55:47;;;;;;;1.20;1.10;;;19.30;72.20;;;;;;10521883;28;20686;-63
2021/08/29 16:01:09;;;;;;;1.17;1.07;;;19.30;72.80;;;;;;10533637;28;20211;-65
2021/08/29 16:06:32;;;;;;;1.30;1.20;;;19.30;73.30;;;;;;10535152;28;20319;-66
2021/08/29 16:11:55;;;;;;;1.60;1.50;;;19.30;72.80;;;;;;10523023;28;20698;-67
2021/08/29 16:17:18;;;;;;;1.50;1.40;;;19.40;72.10;;;;;;10514269;28;20188;-66
2021/08/29 16:22:41;;;;;;;1.77;1.50;;;19.30;72.90;;;;;;10532939;28;20219;-66
2021/08/29 16:28:04;;;;;;;2.23;1.87;;;19.30;73.30;;;;;;10521389;28;20222;-66
2021/08/29 16:33:26;;;;;;;2.03;1.77;;;19.30;73.00;;;;;;10493190;28;20200;-65
2021/08/29 16:38:49;;;;;;;2.17;1.73;;;19.40;72.20;;;;;;10494396;28;20208;-64
2021/08/29 16:44:12;;;;;;;2.43;1.87;;;19.40;73.00;;;;;;10503891;28;20210;-66
2021/08/29 16:49:34;;;;;;;2.23;2.00;;;19.30;73.40;;;;;;10530662;28;20226;-63
2021/08/29 16:54:58;;;;;;;2.47;2.10;;;19.30;73.00;;;;;;10515119;28;20235;-65
2021/08/29 17:00:20;;;;;;;2.93;2.10;;;19.40;71.90;;;;;;10492884;28;20293;-66
2021/08/29 17:05:42;;;;;;;2.50;2.10;;;19.40;71.10;;;;;;10492131;28;20220;-68
2021/08/29 17:11:06;;;;;;;2.40;2.20;;;19.50;70.60;;;;;;10514364;22;20684;-62
2021/08/29 17:16:28;;;;;;;3.33;2.30;;;19.50;71.20;;;;;;10494671;28;20200;-62
2021/08/29 17:21:50;;;;;;;2.93;2.63;;;19.40;72.40;;;;;;10496055;28;20220;-61
2021/08/29 17:27:13;;;;;;;3.27;2.77;;;19.40;72.90;;;;;;10493489;28;20219;-62
2021/08/29 17:32:36;;;;;;;3.20;2.90;;;19.40;72.60;;;;;;10492729;28;20688;-62
2021/08/29 17:37:58;;;;;;;3.47;2.93;;;19.40;71.30;;;;;;10493142;28;20661;-62
2021/08/29 17:43:23;;;;;;;3.20;2.70;;;19.40;72.10;;;;;;10491635;28;20302;-63
2021/08/29 17:48:45;;;;;;;3.17;2.87;;;19.40;72.80;;;;;;10490565;28;20295;-62
2021/08/29 17:54:07;;;;;;;5.73;3.27;;;19.30;73.20;;;;;;10492486;28;20471;-61
2021/08/29 17:59:31;;;;;;;3.70;2.90;;;19.30;72.50;;;;;;10489395;28;20216;-63
2021/08/29 18:04:54;;;;;;;3.43;2.80;;;19.40;72.30;;;;;;10485533;28;20211;-63
2021/08/29 18:10:16;;;;;;;2.87;2.57;;;19.40;73.10;;;;;;10481263;28;20230;-63
2021/08/29 18:15:40;;;;;;;3.20;2.70;;;19.40;73.50;;;;;;10485771;28;20762;-62
2021/08/29 18:21:02;;;;;;;3.40;3.03;;;19.40;72.70;;;;;;10484435;28;20297;-63
2021/08/29 18:26:25;;;;;;;3.50;3.07;;;19.30;72.20;;;;;;10485697;28;20693;-63
2021/08/29 18:31:50;;;;;;;3.27;2.97;;;19.30;73.00;;;;;;10482664;28;20208;-61
2021/08/29 18:37:12;;;;;;;3.90;2.87;;;19.30;73.50;;;;;;10483940;28;20189;-61
2021/08/29 18:42:35;;;;;;;3.77;3.07;;;19.30;72.70;;;;;;10485840;28;20215;-62
2021/08/29 18:47:59;;;;;;;3.40;2.73;;;19.40;71.50;;;;;;10490834;28;20592;-61
2021/08/29 18:53:21;;;;;;;3.27;2.80;;;19.40;72.70;;;;;;10491129;28;20219;-61
2021/08/29 18:58:43;;;;;;;3.03;2.63;;;19.40;73.10;;;;;;10490053;28;20580;-62
2021/08/29 19:04:07;;;;;;;3.80;3.40;;;19.30;73.40;;;;;;10487734;28;20188;-62
2021/08/29 19:09:29;;;;;;;3.00;2.70;;;19.40;72.90;;;;;;10488104;28;20736;-59
2021/08/29 19:14:51;;;;;;;3.73;3.00;;;19.40;72.80;;;;;;10489008;28;20192;-62
2021/08/29 19:20:15;;;;;;;3.50;2.97;;;19.30;73.20;;;;;;10488208;28;20719;-63
2021/08/29 19:25:37;;;;;;;4.90;3.33;;;19.30;73.60;;;;;;10504125;28;20219;-62
2021/08/29 19:30:59;;;;;;;3.63;3.20;;;19.40;72.40;;;;;;10529907;28;20262;-62
2021/08/29 19:36:23;;;;;;;3.60;3.20;;;19.40;71.80;;;;;;10532856;28;20205;-62
2021/08/29 19:41:45;;;;;;;3.67;3.13;;;19.30;72.70;;;;;;10535666;28;20223;-62
2021/08/29 19:47:07;;;;;;;3.40;3.10;;;19.30;73.20;;;;;;10515284;28;20220;-62
2021/08/29 19:52:30;;;;;;;4.73;3.30;;;19.40;73.20;;;;;;10494451;28;20223;-62
2021/08/29 19:57:52;;;;;;;4.47;3.23;;;19.40;72.40;;;;;;10513661;28;20450;-61
2021/08/29 20:03:14;;;;;;;3.97;3.40;;;19.30;72.70;;;;;;10493653;28;20220;-62
2021/08/29 20:08:38;;;;;;;3.80;3.33;;;19.30;73.20;;;;;;10493955;28;20212;-63
2021/08/29 20:14:00;;;;;;;4.20;3.47;;;19.30;73.40;;;;;;10494362;28;20215;-61
2021/08/29 20:19:22;;;;;;;3.70;3.40;;;19.30;72.20;;;;;;10492639;28;20214;-63
2021/08/29 20:24:46;;;;;;;3.43;3.13;;;19.40;72.50;;;;;;10492704;28;20200;-63
2021/08/29 20:30:09;;;;;;;3.90;3.50;;;19.30;73.00;;;;;;10498111;28;20291;-62
2021/08/29 20:35:31;;;;;;;4.00;3.33;;;19.30;73.50;;;;;;10533623;28;20584;-62
2021/08/29 20:40:55;;;;;;;4.40;3.67;;;19.30;72.70;;;;;;10502398;28;20220;-61
2021/08/29 20:46:17;;;;;;;3.67;3.13;;;19.30;72.60;;;;;;10493063;28;20238;-61
2021/08/29 20:51:39;;;;;;;4.63;3.53;;;19.30;73.20;;;;;;10493037;28;20222;-61
2021/08/29 20:57:03;;;;;;;4.87;3.70;;;19.30;73.60;;;;;;10493091;28;20196;-61
2021/08/29 21:02:25;;;;;;;4.10;3.60;;;19.30;72.40;;;;;;10491687;28;20227;-62
2021/08/29 21:07:47;;;;;;;4.40;3.50;;;19.30;71.70;;;;;;10492514;28;20213;-60
2021/08/29 21:13:10;;;;;;;4.87;3.90;;;19.30;72.70;;;;;;10492046;28;20227;-62
2021/08/29 21:18:33;;;;;;;4.10;3.70;;;19.30;73.20;;;;;;10492598;28;20206;-60
2021/08/29 21:23:55;;;;;;;4.30;3.60;;;19.30;73.10;;;;;;10491775;28;20196;-60
2021/08/29 21:29:19;;;;;;;3.83;3.43;;;19.30;72.20;;;;;;10493575;28;20220;-62
2021/08/29 21:34:41;;;;;;;4.87;3.27;;;19.30;73.00;;;;;;10491236;28;20192;-63
2021/08/29 21:40:03;;;;;;;4.80;3.97;;;19.30;73.50;;;;;;10492127;28;20212;-62
2021/08/29 21:45:27;;;;;;;4.10;3.47;;;19.30;72.90;;;;;;10493064;28;20219;-61
2021/08/29 21:50:49;;;;;;;4.43;3.43;;;19.40;71.80;;;;;;10490794;28;20211;-62
2021/08/29 21:56:11;;;;;;;4.10;3.70;;;19.30;72.90;;;;;;10490990;28;20200;-62
2021/08/29 22:01:36;;;;;;;4.37;3.90;;;19.30;73.30;;;;;;10490909;28;20688;-63
2021/08/29 22:06:59;;;;;;;4.60;4.20;;;19.30;73.30;;;;;;10491282;28;20587;-61
2021/08/29 22:12:21;;;;;;;4.30;3.90;;;19.30;72.20;;;;;;10491509;28;20601;-63
2021/08/29 22:17:44;;;;;;;3.97;3.47;;;19.30;73.10;;;;;;10492031;28;20265;-60
2021/08/29 22:23:07;;;;;;;4.93;4.07;;;19.30;73.50;;;;;;10499346;28;20703;-60
2021/08/29 22:28:29;;;;;;;4.27;3.87;;;19.30;73.30;;;;;;10496079;28;20216;-60
2021/08/29 22:33:52;;;;;;;4.03;3.60;;;19.30;72.10;;;;;;10498211;28;20224;-61
2021/08/29 22:39:20;;;;;;;4.63;3.83;;;19.30;73.00;;;;;;10499753;28;20509;-57
2021/08/29 22:44:42;;;;;;;4.90;4.03;;;19.30;73.40;;;;;;10498347;28;20189;-62
2021/08/29 22:50:06;;;;;;;3.63;3.33;;;19.30;73.50;;;;;;10499578;28;20215;-62
2021/08/29 22:55:29;;;;;;;3.90;3.50;;;19.30;72.20;;;;;;10497798;28;20189;-61
2021/08/29 23:00:51;;;;;;;3.87;3.47;;;19.30;72.80;;;;;;10497506;28;20224;-61
2021/08/29 23:06:15;;;;;;;4.37;3.97;;;19.30;73.20;;;;;;10497703;28;20595;-62
2021/08/29 23:11:37;;;;;;;4.50;3.70;;;19.30;73.70;;;;;;10527549;22;20226;-56
2021/08/29 23:16:59;;;;;;;5.00;3.83;;;19.30;72.60;;;;;;10536959;28;20195;-58
2021/08/29 23:22:23;;;;;;;4.00;3.60;;;19.30;72.90;;;;;;10539885;28;20821;-61
2021/08/29 23:27:45;;;;;;;4.57;4.13;;;19.30;73.40;;;;;;10538483;28;20222;-60
2021/08/29 23:33:07;;;;;;;4.60;4.10;;;19.30;73.80;;;;;;10533189;28;20219;-59
2021/08/29 23:38:30;;;;;;;4.50;4.10;;;19.30;72.50;;;;;;10535523;28;20191;-60
2021/08/29 23:43:52;;;;;;;4.47;4.03;;;19.30;72.60;;;;;;10536351;28;20227;-59
2021/08/29 23:49:14;;;;;;;4.50;4.10;;;19.30;73.20;;;;;;10503321;28;20219;-58
2021/08/29 23:54:38;;;;;;;4.30;3.90;;;19.30;73.70;;;;;;10537017;28;20600;-61
